Time;durP1;ratioP1;P1;durP2;ratioP2;P2;SDS_P1;SDS_P2;PMS_P1;PMS_P2;Temp;Humidity;BMP_temperature;BMP_pressure;BME280_temperature;BME280_humidity;BME280_pressure;Samples;Min_cycle;Max_cycle;Signal;HPM_P1;HPM_P2
2021/12/24 00:01:28;;;;;;;1.85;1.20;;;8.20;93.90;;;;;;5044912;28;20083;-81
2021/12/24 00:03:54;;;;;;;1.23;0.80;;;8.10;93.90;;;;;;5046583;28;20029;-81
2021/12/24 00:06:20;;;;;;;1.55;0.90;;;8.10;94.00;;;;;;5031955;28;20029;-81
2021/12/24 00:08:47;;;;;;;3.92;1.25;;;8.00;94.30;;;;;;5045561;28;20370;-82
2021/12/24 00:11:15;;;;;;;1.02;0.70;;;7.90;94.60;;;;;;5027977;28;20080;-82
2021/12/24 00:13:44;;;;;;;2.80;0.90;;;7.90;94.60;;;;;;5043839;28;20035;-82
2021/12/24 00:18:55;;;;;;;2.50;0.90;;;7.80;95.00;;;;;;5064785;28;20032;-81
2021/12/24 00:35:15;;;;;;;2.20;1.08;;;7.50;96.40;;;;;;5040430;28;20032;-80
2021/12/24 00:37:44;;;;;;;2.53;1.05;;;7.50;96.60;;;;;;5022925;28;20093;-80
2021/12/24 00:40:18;;;;;;;3.05;1.00;;;7.50;96.80;;;;;;5023619;28;20021;-79
2021/12/24 00:42:47;;;;;;;3.50;1.30;;;7.50;97.00;;;;;;5041991;28;20474;-79
2021/12/24 00:45:19;;;;;;;2.38;1.40;;;7.50;97.20;;;;;;5049459;28;20082;-80
2021/12/24 00:47:45;;;;;;;;;;;7.50;97.10;;;;;;5054995;28;20017;-79
2021/12/24 00:50:15;;;;;;;1.08;0.80;;;7.50;97.40;;;;;;5068785;28;19893;-79
2021/12/24 00:55:11;;;;;;;2.83;1.38;;;7.50;97.50;;;;;;5076843;28;20075;-80
2021/12/24 00:57:41;;;;;;;4.18;1.10;;;7.50;97.60;;;;;;5056385;28;20103;-79
2021/12/24 01:00:18;;;;;;;2.65;1.33;;;7.50;97.70;;;;;;5044587;28;20099;-80
2021/12/24 01:02:45;;;;;;;2.00;1.10;;;7.50;97.70;;;;;;5042341;28;20021;-81
2021/12/24 01:05:12;;;;;;;3.60;1.30;;;7.50;97.80;;;;;;5023222;28;20030;-81
2021/12/24 01:07:38;;;;;;;1.75;0.95;;;7.50;97.90;;;;;;5040231;28;20025;-81
2021/12/24 01:10:06;;;;;;;2.75;1.00;;;7.50;97.90;;;;;;5026228;28;20489;-79
2021/12/24 01:12:32;;;;;;;3.33;1.13;;;7.50;97.80;;;;;;5052188;28;20022;-80
2021/12/24 01:14:58;;;;;;;3.20;1.10;;;7.60;97.70;;;;;;5049063;28;20033;-81
2021/12/24 01:17:34;;;;;;;1.40;1.00;;;7.60;97.70;;;;;;5050429;28;20362;-81
2021/12/24 01:20:04;;;;;;;1.67;0.95;;;7.70;97.70;;;;;;5058855;28;20086;-81
2021/12/24 01:38:37;;;;;;;2.72;0.93;;;8.10;97.00;;;;;;5050255;28;20036;-82
2021/12/24 01:41:07;;;;;;;1.48;1.00;;;8.20;96.80;;;;;;5041358;28;20068;-81
2021/12/24 01:43:33;;;;;;;3.38;1.23;;;8.30;96.60;;;;;;5051659;28;20330;-79
2021/12/24 01:46:00;;;;;;;2.92;0.93;;;8.40;96.30;;;;;;5044675;28;20037;-81
2021/12/24 01:48:26;;;;;;;2.00;0.93;;;8.40;96.10;;;;;;5023156;28;20032;-81
2021/12/24 01:50:54;;;;;;;2.35;1.30;;;8.50;96.00;;;;;;5043983;28;20034;-81
2021/12/24 01:53:23;;;;;;;2.25;1.00;;;8.50;95.90;;;;;;5042846;28;20089;-80
2021/12/24 01:55:51;;;;;;;2.95;1.52;;;8.50;95.90;;;;;;5041380;28;20021;-82
2021/12/24 01:58:23;;;;;;;1.08;0.75;;;8.50;95.80;;;;;;5041527;28;20029;-81
2021/12/24 02:00:51;;;;;;;2.05;1.15;;;8.60;95.70;;;;;;5040394;28;20021;-81
2021/12/24 02:03:17;;;;;;;3.40;1.20;;;8.60;95.60;;;;;;5048059;28;20025;-81
2021/12/24 02:05:44;;;;;;;3.60;1.00;;;8.60;95.60;;;;;;5051657;28;20049;-81
2021/12/24 02:08:11;;;;;;;1.17;1.08;;;8.60;95.60;;;;;;5052095;28;20086;-82
2021/12/24 02:10:37;;;;;;;2.42;1.15;;;8.60;95.60;;;;;;5052671;28;20347;-80
2021/12/24 02:13:03;;;;;;;2.67;1.23;;;8.60;95.60;;;;;;5033060;28;20033;-81
2021/12/24 02:15:43;;;;;;;1.42;0.80;;;8.70;95.60;;;;;;5031027;28;20036;-82
2021/12/24 02:29:19;;;;;;;1.67;1.00;;;8.80;95.00;;;;;;5060769;28;20466;-80
2021/12/24 02:31:45;;;;;;;2.85;1.20;;;8.90;95.00;;;;;;5062766;28;20052;-80
2021/12/24 02:34:10;;;;;;;3.15;0.85;;;8.90;95.00;;;;;;5042375;28;20055;-80
2021/12/24 02:36:36;;;;;;;1.15;0.88;;;8.90;94.90;;;;;;5038264;28;20044;-81
2021/12/24 02:39:03;;;;;;;1.60;0.70;;;8.90;94.90;;;;;;5039046;28;20034;-81
2021/12/24 02:41:29;;;;;;;1.15;0.70;;;8.90;94.80;;;;;;5041814;28;20025;-81
2021/12/24 02:43:55;;;;;;;1.70;1.20;;;8.90;94.90;;;;;;5039917;28;20082;-80
2021/12/24 02:47:03;;;;;;;2.25;0.90;;;8.90;94.70;;;;;;5049877;28;20013;-81
2021/12/24 02:54:53;;;;;;;0.95;0.80;;;9.10;94.30;;;;;;5039294;28;20056;-81
2021/12/24 02:57:22;;;;;;;2.42;0.88;;;9.10;94.10;;;;;;5021827;28;20037;-81
2021/12/24 02:59:58;;;;;;;2.15;1.17;;;9.20;93.90;;;;;;5039883;28;20030;-81
2021/12/24 03:02:25;;;;;;;0.90;0.90;;;9.20;93.80;;;;;;5022581;28;20022;-81
2021/12/24 03:04:51;;;;;;;1.77;1.20;;;9.30;93.70;;;;;;5023358;28;20033;-81
2021/12/24 03:07:17;;;;;;;2.05;0.95;;;9.20;93.70;;;;;;5022391;28;20083;-82
2021/12/24 03:09:42;;;;;;;2.78;1.00;;;9.20;93.70;;;;;;5023095;28;20030;-82
2021/12/24 03:12:08;;;;;;;1.23;0.70;;;9.20;93.60;;;;;;5042013;28;20064;-81
2021/12/24 03:14:34;;;;;;;2.92;1.27;;;9.30;93.50;;;;;;5025927;28;20047;-82
2021/12/24 03:17:01;;;;;;;1.08;0.90;;;9.30;93.50;;;;;;5035316;28;20056;-82
2021/12/24 03:19:31;;;;;;;4.63;0.73;;;9.30;93.50;;;;;;5050914;28;20018;-82
2021/12/24 03:22:06;;;;;;;3.53;1.42;;;9.20;93.40;;;;;;5044068;28;20021;-81
2021/12/24 03:24:35;;;;;;;1.13;0.80;;;9.30;93.30;;;;;;5042191;28;20021;-80
2021/12/24 03:27:00;;;;;;;3.00;1.05;;;9.30;93.20;;;;;;5042976;28;20053;-81
2021/12/24 03:29:26;;;;;;;0.68;0.65;;;9.30;93.10;;;;;;5042628;28;20030;-81
2021/12/24 03:31:52;;;;;;;1.55;0.88;;;9.30;93.10;;;;;;5043552;28;20025;-81
2021/12/24 03:34:22;;;;;;;1.05;0.93;;;9.40;92.90;;;;;;5030698;28;20085;-80
2021/12/24 03:36:48;;;;;;;1.48;0.90;;;9.40;92.80;;;;;;5045427;28;20026;-81
2021/12/24 03:39:15;;;;;;;2.15;1.02;;;9.40;92.70;;;;;;5025450;28;20026;-81
2021/12/24 03:41:42;;;;;;;3.72;1.40;;;9.40;92.70;;;;;;5043172;28;20121;-82
2021/12/24 03:44:12;;;;;;;1.25;0.70;;;9.30;92.50;;;;;;5024732;28;20026;-81
2021/12/24 03:46:51;;;;;;;3.40;0.95;;;9.30;92.50;;;;;;5041268;28;20009;-82
2021/12/24 03:49:34;;;;;;;1.30;0.70;;;9.30;92.50;;;;;;5040969;28;20029;-81
2021/12/24 03:54:58;;;;;;;1.17;0.80;;;9.30;92.30;;;;;;5042555;28;20033;-81
2021/12/24 03:57:26;;;;;;;2.90;0.90;;;9.20;92.20;;;;;;5046553;28;20041;-81
2021/12/24 03:59:53;;;;;;;1.42;0.75;;;9.10;92.20;;;;;;5044169;28;20032;-82
2021/12/24 04:02:19;;;;;;;1.88;0.90;;;9.00;92.50;;;;;;5040914;28;20095;-81
2021/12/24 04:04:44;;;;;;;1.00;0.70;;;8.90;92.70;;;;;;5040543;28;20017;-81
2021/12/24 04:07:10;;;;;;;1.33;0.80;;;8.80;92.80;;;;;;5044315;28;20048;-82
2021/12/24 04:09:38;;;;;;;0.55;0.52;;;8.70;93.00;;;;;;5044504;28;20045;-82
2021/12/24 04:12:04;;;;;;;1.10;0.70;;;8.60;93.10;;;;;;5048331;28;20080;-82
2021/12/24 04:14:30;;;;;;;0.98;0.93;;;8.60;93.30;;;;;;5048567;28;21219;-82
2021/12/24 04:16:56;;;;;;;0.90;0.80;;;8.50;93.50;;;;;;5028323;28;20025;-80
2021/12/24 04:24:52;;;;;;;1.05;0.88;;;8.30;94.00;;;;;;5066311;28;20032;-78
2021/12/24 04:27:19;;;;;;;1.05;0.80;;;8.20;94.30;;;;;;5066069;28;20084;-78
2021/12/24 04:29:45;;;;;;;1.75;0.90;;;8.20;94.50;;;;;;5065639;28;20448;-79
2021/12/24 04:32:18;;;;;;;0.75;0.75;;;8.20;94.60;;;;;;5052218;28;20037;-79
2021/12/24 04:34:48;;;;;;;0.85;0.70;;;8.20;94.70;;;;;;5046977;28;20033;-79
2021/12/24 04:38:03;;;;;;;2.03;0.80;;;8.20;94.50;;;;;;5048570;28;20513;-79
2021/12/24 04:51:20;;;;;;;1.27;0.60;;;8.20;93.90;;;;;;5046293;28;20085;-79
2021/12/24 05:04:36;;;;;;;0.47;0.47;;;8.10;92.50;;;;;;5034749;28;20032;-79
2021/12/24 05:07:15;;;;;;;1.67;0.80;;;8.10;92.30;;;;;;5035430;28;20033;-79
2021/12/24 05:09:42;;;;;;;1.13;0.60;;;8.10;92.00;;;;;;5034236;28;20025;-78
2021/12/24 05:12:08;;;;;;;1.45;0.70;;;8.10;91.60;;;;;;5037510;28;20423;-79
2021/12/24 05:14:34;;;;;;;0.75;0.57;;;8.10;91.30;;;;;;5037633;28;20049;-78
2021/12/24 05:22:32;;;;;;;0.75;0.70;;;8.20;90.70;;;;;;5035303;28;20056;-78
2021/12/24 05:25:00;;;;;;;0.60;0.60;;;8.20;90.40;;;;;;5033850;28;20052;-78
2021/12/24 05:27:26;;;;;;;1.05;0.60;;;8.30;90.20;;;;;;5016463;28;20022;-80
2021/12/24 05:29:53;;;;;;;1.02;0.50;;;8.30;89.80;;;;;;5035682;28;20040;-81
2021/12/24 05:32:19;;;;;;;2.15;0.63;;;8.40;89.00;;;;;;5041615;28;20036;-82
2021/12/24 05:34:45;;;;;;;2.47;0.73;;;8.40;88.80;;;;;;5045062;28;20131;-82
2021/12/24 05:37:11;;;;;;;3.28;1.05;;;8.40;88.50;;;;;;5046399;28;20025;-82
2021/12/24 05:39:37;;;;;;;1.17;0.45;;;8.40;88.20;;;;;;5043328;28;20029;-82
2021/12/24 05:42:04;;;;;;;0.70;0.60;;;8.40;88.10;;;;;;5043022;28;20186;-80
2021/12/24 05:44:31;;;;;;;0.88;0.70;;;8.40;88.00;;;;;;5045844;28;20022;-83
2021/12/24 05:46:57;;;;;;;3.30;0.80;;;8.40;87.50;;;;;;5054026;28;20028;-82
2021/12/24 05:49:23;;;;;;;0.47;0.47;;;8.30;87.40;;;;;;5044796;28;20119;-82
2021/12/24 05:51:48;;;;;;;0.68;0.50;;;8.40;87.50;;;;;;5045124;28;20220;-83
2021/12/24 05:54:14;;;;;;;0.98;0.80;;;8.40;87.50;;;;;;5024988;28;20119;-82
2021/12/24 05:56:42;;;;;;;2.70;1.05;;;8.40;87.10;;;;;;5043165;28;20021;-82
2021/12/24 05:59:08;;;;;;;1.85;1.02;;;8.50;86.00;;;;;;5024789;28;20044;-81
2021/12/24 06:01:34;;;;;;;2.70;1.17;;;8.60;85.70;;;;;;5042423;28;20021;-82
2021/12/24 06:04:00;;;;;;;1.13;1.02;;;8.60;85.60;;;;;;5023053;28;20459;-82
2021/12/24 06:06:25;;;;;;;3.75;2.53;;;8.60;85.60;;;;;;5023273;28;20040;-81
2021/12/24 06:08:51;;;;;;;1.60;1.33;;;8.60;85.30;;;;;;5039853;28;20036;-82
2021/12/24 06:11:17;;;;;;;1.27;0.77;;;8.70;84.80;;;;;;5027800;28;20032;-81
2021/12/24 06:13:43;;;;;;;1.23;0.88;;;8.70;84.50;;;;;;5040389;28;20041;-81
2021/12/24 06:16:09;;;;;;;3.15;0.70;;;8.70;84.20;;;;;;5039243;28;20038;-81
2021/12/24 06:18:38;;;;;;;1.60;0.80;;;8.80;83.90;;;;;;5045366;28;20024;-81
2021/12/24 06:21:05;;;;;;;1.02;0.60;;;8.80;83.80;;;;;;5043755;28;20025;-82
2021/12/24 06:23:31;;;;;;;1.17;1.00;;;8.70;83.80;;;;;;5041165;28;20032;-82
2021/12/24 06:25:58;;;;;;;2.17;0.80;;;8.80;83.40;;;;;;5042622;28;20021;-81
2021/12/24 06:28:26;;;;;;;0.80;0.70;;;8.80;83.30;;;;;;5043172;28;20021;-82
2021/12/24 06:30:52;;;;;;;3.45;1.00;;;8.80;82.60;;;;;;5027283;28;20142;-82
2021/12/24 06:33:19;;;;;;;1.75;0.80;;;8.90;82.60;;;;;;5041921;28;20025;-83
2021/12/24 06:35:45;;;;;;;5.38;1.25;;;8.80;82.60;;;;;;5030234;28;20056;-82
2021/12/24 06:38:11;;;;;;;1.48;0.93;;;8.80;83.00;;;;;;5023559;28;20474;-84
2021/12/24 06:40:37;;;;;;;2.58;0.80;;;8.80;83.20;;;;;;5032668;28;20033;-83
2021/12/24 06:43:04;;;;;;;1.38;0.70;;;8.80;83.30;;;;;;5024875;28;20022;-83
2021/12/24 06:45:32;;;;;;;1.17;0.70;;;8.80;83.40;;;;;;5036833;28;20220;-83
2021/12/24 06:47:58;;;;;;;0.93;0.88;;;8.80;83.60;;;;;;5049596;28;20013;-82
2021/12/24 06:50:25;;;;;;;3.22;0.85;;;8.80;84.00;;;;;;5044238;28;20026;-83
2021/12/24 06:52:51;;;;;;;0.70;0.50;;;8.80;84.00;;;;;;5045690;28;20029;-83
2021/12/24 06:55:18;;;;;;;1.75;0.90;;;8.80;84.10;;;;;;5046225;28;20056;-83
2021/12/24 06:57:46;;;;;;;1.48;0.95;;;8.80;84.20;;;;;;5026372;28;20082;-83
2021/12/24 07:00:17;;;;;;;0.90;0.70;;;8.80;84.50;;;;;;5044743;28;20021;-83
2021/12/24 07:02:43;;;;;;;0.88;0.55;;;8.80;84.60;;;;;;5046496;28;20041;-83
2021/12/24 07:05:09;;;;;;;1.90;0.90;;;8.80;84.70;;;;;;5045180;28;20048;-83
2021/12/24 07:07:35;;;;;;;1.00;0.70;;;8.80;84.90;;;;;;5044956;28;20077;-83
2021/12/24 07:10:01;;;;;;;1.70;0.70;;;8.80;85.10;;;;;;5033678;28;20037;-84
2021/12/24 07:12:26;;;;;;;1.67;0.88;;;8.80;85.10;;;;;;5055116;28;20017;-82
2021/12/24 07:14:52;;;;;;;1.48;0.73;;;8.80;85.20;;;;;;5060375;28;20037;-83
2021/12/24 07:17:18;;;;;;;0.98;0.73;;;8.80;85.30;;;;;;5052206;28;20025;-83
2021/12/24 07:19:44;;;;;;;1.52;0.90;;;8.80;85.30;;;;;;5067631;28;20029;-82
2021/12/24 07:22:10;;;;;;;1.10;0.60;;;8.80;85.50;;;;;;5056453;28;20033;-83
2021/12/24 07:24:36;;;;;;;1.17;0.70;;;8.80;85.80;;;;;;5057619;28;20059;-83
2021/12/24 07:27:03;;;;;;;0.85;0.77;;;8.80;85.90;;;;;;5075655;28;20017;-83
2021/12/24 07:29:29;;;;;;;0.80;0.68;;;8.80;86.00;;;;;;5074222;28;20053;-82
2021/12/24 07:31:55;;;;;;;2.92;0.70;;;8.80;86.80;;;;;;5070546;28;20021;-83
2021/12/24 07:34:21;;;;;;;1.27;0.80;;;8.90;86.40;;;;;;5050073;28;20185;-83
2021/12/24 07:36:47;;;;;;;0.93;0.80;;;8.90;86.60;;;;;;5030601;28;20125;-82
2021/12/24 07:39:13;;;;;;;1.50;0.80;;;8.80;86.80;;;;;;5030549;28;20085;-83
2021/12/24 07:41:39;;;;;;;1.90;0.82;;;8.90;87.00;;;;;;5047383;28;20039;-86
2021/12/24 07:44:06;;;;;;;0.88;0.80;;;8.80;87.10;;;;;;5030703;28;20018;-83
2021/12/24 07:46:44;;;;;;;0.82;0.73;;;8.90;87.10;;;;;;5037610;28;20022;-84
2021/12/24 07:54:26;;;;;;;3.47;0.98;;;9.00;87.10;;;;;;5046554;28;20034;-83
2021/12/24 07:56:52;;;;;;;2.55;1.45;;;9.00;87.40;;;;;;5048660;28;20033;-84
2021/12/24 07:59:18;;;;;;;3.25;1.65;;;9.00;87.50;;;;;;5025719;28;20089;-83
2021/12/24 08:01:47;;;;;;;0.77;0.70;;;9.00;87.90;;;;;;5023017;28;20367;-83
2021/12/24 08:04:13;;;;;;;0.93;0.85;;;9.00;88.20;;;;;;5042593;28;20021;-82
2021/12/24 08:06:39;;;;;;;2.58;1.52;;;9.00;88.70;;;;;;5041191;28;20037;-84
2021/12/24 08:09:07;;;;;;;1.25;1.15;;;9.00;89.30;;;;;;5044462;28;20070;-84
2021/12/24 08:11:34;;;;;;;1.85;1.20;;;9.00;90.00;;;;;;5049146;28;20112;-81
2021/12/24 08:14:01;;;;;;;1.42;1.05;;;9.00;90.30;;;;;;5046259;28;20100;-85
2021/12/24 08:16:28;;;;;;;2.08;1.00;;;9.00;90.60;;;;;;5053304;28;20029;-86
2021/12/24 08:18:54;;;;;;;1.27;1.17;;;9.00;90.70;;;;;;5045641;28;20049;-85
2021/12/24 08:21:20;;;;;;;1.95;1.30;;;9.00;91.00;;;;;;5050022;28;20343;-87
2021/12/24 08:23:48;;;;;;;1.60;1.02;;;9.00;91.30;;;;;;5047527;28;20010;-87
2021/12/24 08:26:21;;;;;;;2.03;1.13;;;8.90;91.60;;;;;;5058683;28;20045;-88
2021/12/24 08:28:47;;;;;;;1.50;1.05;;;9.00;91.60;;;;;;5031979;28;20073;-85
2021/12/24 08:31:13;;;;;;;2.97;0.90;;;8.90;92.10;;;;;;5047663;28;20025;-86
2021/12/24 08:33:39;;;;;;;1.42;1.10;;;8.90;92.30;;;;;;5058071;28;20254;-86
2021/12/24 08:36:07;;;;;;;2.35;1.02;;;8.80;92.60;;;;;;5053857;28;20540;-84
2021/12/24 08:38:33;;;;;;;2.42;1.15;;;8.80;92.80;;;;;;5049768;28;20085;-86
2021/12/24 08:41:00;;;;;;;2.40;0.90;;;8.70;93.00;;;;;;5031659;28;20033;-84
2021/12/24 08:43:27;;;;;;;0.65;0.65;;;8.80;92.90;;;;;;5046969;28;20032;-86
2021/12/24 08:45:52;;;;;;;3.78;1.10;;;8.80;92.90;;;;;;5036744;28;20064;-85
2021/12/24 08:48:18;;;;;;;1.85;0.98;;;8.90;92.50;;;;;;5045554;28;20052;-87
2021/12/24 08:50:44;;;;;;;0.65;0.60;;;8.90;92.40;;;;;;5050840;28;20041;-84
2021/12/24 08:53:12;;;;;;;0.98;0.80;;;8.90;92.40;;;;;;5041641;28;20033;-87
2021/12/24 08:55:38;;;;;;;1.77;0.98;;;8.90;92.30;;;;;;5042701;28;20041;-87
2021/12/24 08:58:04;;;;;;;1.20;1.13;;;9.00;92.40;;;;;;5047115;28;20025;-84
2021/12/24 09:00:32;;;;;;;1.95;0.88;;;9.00;92.40;;;;;;5048648;28;20029;-85
2021/12/24 09:02:58;;;;;;;1.30;1.00;;;9.00;92.50;;;;;;5033266;28;20481;-86
2021/12/24 09:05:24;;;;;;;3.33;1.00;;;9.00;92.70;;;;;;5035636;28;20117;-85
2021/12/24 09:07:50;;;;;;;0.88;0.85;;;9.00;92.50;;;;;;5051309;28;20033;-84
2021/12/24 09:10:16;;;;;;;2.75;0.90;;;9.00;92.30;;;;;;5054274;28;20032;-87
2021/12/24 09:12:43;;;;;;;1.08;0.80;;;9.10;92.50;;;;;;5052599;28;20086;-86
2021/12/24 09:15:12;;;;;;;3.17;0.82;;;9.10;92.60;;;;;;5035671;28;20032;-86
2021/12/24 09:17:43;;;;;;;0.80;0.70;;;9.20;92.50;;;;;;5051354;28;20140;-86
2021/12/24 09:20:11;;;;;;;0.98;0.88;;;9.20;92.20;;;;;;5025874;28;20047;-86
2021/12/24 09:22:39;;;;;;;1.27;1.00;;;9.20;92.10;;;;;;5027038;28;20095;-85
2021/12/24 09:25:06;;;;;;;1.45;1.20;;;9.20;92.30;;;;;;5030150;28;20029;-87
2021/12/24 09:27:31;;;;;;;2.60;0.93;;;9.20;92.20;;;;;;5047704;28;20018;-86
2021/12/24 09:29:57;;;;;;;2.25;0.85;;;9.20;92.20;;;;;;5030584;28;20079;-86
2021/12/24 09:32:25;;;;;;;1.17;0.98;;;9.20;92.40;;;;;;5027545;28;20094;-86
2021/12/24 09:34:51;;;;;;;2.30;0.95;;;9.10;92.40;;;;;;5046820;28;20036;-84
2021/12/24 09:37:17;;;;;;;2.88;1.10;;;9.10;92.60;;;;;;5030751;28;20028;-86
2021/12/24 09:39:43;;;;;;;1.35;1.00;;;9.00;92.90;;;;;;5029516;28;20029;-85
2021/12/24 09:42:09;;;;;;;1.30;0.95;;;8.90;93.30;;;;;;5026568;28;20018;-86
2021/12/24 09:45:17;;;;;;;4.35;1.23;;;8.80;93.90;;;;;;5158452;22;20473;-85
2021/12/24 09:47:49;;;;;;;2.05;1.00;;;8.80;94.40;;;;;;4969552;28;20031;-85
2021/12/24 09:50:20;;;;;;;1.65;0.80;;;8.70;94.80;;;;;;4970659;28;20034;-83
2021/12/24 09:53:02;;;;;;;3.03;0.83;;;8.60;95.00;;;;;;4988633;28;20035;-83
2021/12/24 09:55:29;;;;;;;1.05;0.88;;;8.60;95.30;;;;;;5015968;28;20112;-82
2021/12/24 09:57:55;;;;;;;1.48;1.20;;;8.60;95.60;;;;;;5072218;28;20044;-81
2021/12/24 10:00:32;;;;;;;1.45;1.08;;;8.60;95.80;;;;;;5061481;28;20024;-80
2021/12/24 10:07:00;;;;;;;2.00;1.10;;;8.60;96.20;;;;;;5020871;28;20113;-82
2021/12/24 10:09:33;;;;;;;2.33;1.20;;;8.50;96.50;;;;;;5073892;28;20017;-82
2021/12/24 10:12:10;;;;;;;3.30;0.90;;;8.50;96.60;;;;;;5091231;28;20074;-80
2021/12/24 10:14:39;;;;;;;2.83;1.27;;;8.50;96.90;;;;;;5091028;28;20012;-80
2021/12/24 10:17:33;;;;;;;1.48;1.10;;;8.50;97.20;;;;;;5074131;28;20020;-80
2021/12/24 10:20:08;;;;;;;2.72;1.30;;;8.40;97.60;;;;;;5090961;28;20443;-80
2021/12/24 10:23:04;;;;;;;;;;;;;;;;;;;;;
2021/12/24 10:25:30;;;;;;;2.83;1.10;;;8.40;98.40;;;;;;5069526;28;20056;-81
2021/12/24 10:28:11;;;;;;;2.38;0.95;;;8.40;98.80;;;;;;5051781;28;20480;-82
2021/12/24 10:30:42;;;;;;;2.47;1.42;;;8.30;99.20;;;;;;5071451;28;20155;-83
2021/12/24 10:33:13;;;;;;;2.90;1.38;;;8.30;99.70;;;;;;5073252;28;20023;-80
2021/12/24 10:35:39;;;;;;;3.10;1.60;;;8.30;99.90;;;;;;5086948;28;20024;-81
2021/12/24 10:38:31;;;;;;;1.70;1.23;;;8.30;99.90;;;;;;5066973;28;20035;-81
2021/12/24 10:41:04;;;;;;;4.77;1.60;;;8.20;99.90;;;;;;5065089;28;20036;-81
2021/12/24 10:43:34;;;;;;;2.55;1.30;;;8.20;99.90;;;;;;5092379;28;20278;-80
2021/12/24 10:46:17;;;;;;;1.35;1.05;;;8.20;99.90;;;;;;5092544;28;20017;-81
2021/12/24 10:49:16;;;;;;;1.45;1.00;;;8.10;99.90;;;;;;5091729;28;20032;-80
2021/12/24 10:54:55;;;;;;;18.77;11.15;;;8.20;99.90;;;;;;5090672;28;20024;-82
2021/12/24 10:57:23;;;;;;;;;;;8.30;99.90;;;;;;5091716;28;20025;-80
2021/12/24 10:59:51;;;;;;;7.85;4.25;;;8.30;99.90;;;;;;5092243;28;19919;-80
2021/12/24 11:02:19;;;;;;;12.10;6.57;;;8.30;99.90;;;;;;5091636;28;20496;-80
2021/12/24 11:04:46;;;;;;;4.57;2.40;;;8.40;99.90;;;;;;5074326;28;20276;-80
2021/12/24 11:07:33;;;;;;;49.95;23.95;;;8.40;99.90;;;;;;5092481;28;20024;-80
2021/12/24 11:10:19;;;;;;;3.10;2.53;;;8.40;99.90;;;;;;5092569;28;20017;-80
2021/12/24 11:12:47;;;;;;;1.98;1.25;;;8.50;99.90;;;;;;5091114;28;20035;-80
2021/12/24 11:15:47;;;;;;;2.83;1.38;;;8.50;99.90;;;;;;5090104;28;20100;-79
2021/12/24 11:18:16;;;;;;;3.28;1.30;;;8.50;99.90;;;;;;5088219;28;20024;-81
2021/12/24 11:20:43;;;;;;;2.22;1.05;;;8.50;99.90;;;;;;5092601;28;20017;-80
2021/12/24 11:23:16;;;;;;;2.42;1.40;;;8.40;99.90;;;;;;5090408;28;20028;-80
2021/12/24 11:25:49;;;;;;;2.05;1.38;;;8.40;99.90;;;;;;5092405;28;20031;-81
2021/12/24 11:28:17;;;;;;;2.65;1.42;;;8.40;99.90;;;;;;5092521;28;20029;-80
2021/12/24 11:30:52;;;;;;;3.17;1.67;;;8.40;99.90;;;;;;5091914;28;20004;-81
2021/12/24 11:33:25;;;;;;;5.38;1.98;;;8.40;99.90;;;;;;5091516;28;20020;-81
2021/12/24 11:35:53;;;;;;;2.95;1.17;;;8.40;99.90;;;;;;5090720;28;20067;-80
2021/12/24 11:38:22;;;;;;;1.40;1.30;;;8.40;99.90;;;;;;5089024;28;20031;-81
2021/12/24 11:40:50;;;;;;;6.53;1.48;;;8.30;99.90;;;;;;5089742;28;20096;-79
2021/12/24 11:43:20;;;;;;;3.70;1.20;;;8.30;99.90;;;;;;5090284;28;20020;-80
2021/12/24 11:45:46;;;;;;;3.92;1.33;;;8.20;99.90;;;;;;5085156;28;20108;-79
2021/12/24 11:48:12;;;;;;;1.60;1.40;;;8.20;99.90;;;;;;5087590;28;20160;-80
2021/12/24 11:50:38;;;;;;;3.15;1.40;;;8.20;99.90;;;;;;5090528;28;20077;-80
2021/12/24 11:53:14;;;;;;;5.35;2.58;;;8.20;99.90;;;;;;5072179;28;20024;-80
2021/12/24 11:55:42;;;;;;;4.00;2.30;;;8.20;99.90;;;;;;5087923;28;20017;-80
2021/12/24 11:58:23;;;;;;;2.40;1.88;;;8.20;99.90;;;;;;5093289;28;20028;-79
2021/12/24 12:00:51;;;;;;;2.35;1.25;;;8.10;99.90;;;;;;5072802;28;20092;-79
2021/12/24 12:03:38;;;;;;;2.55;1.38;;;8.10;99.90;;;;;;5070709;28;20037;-77
2021/12/24 12:06:06;;;;;;;1.52;1.10;;;8.10;99.90;;;;;;5085536;28;20032;-77
2021/12/24 12:08:37;;;;;;;5.30;2.00;;;8.10;99.90;;;;;;5057520;28;20303;-78
2021/12/24 12:11:13;;;;;;;1.83;1.10;;;8.10;99.90;;;;;;5058865;28;20119;-78
2021/12/24 12:13:51;;;;;;;2.25;1.35;;;8.10;99.90;;;;;;5054017;28;20081;-78
2021/12/24 12:16:41;;;;;;;3.40;1.13;;;8.10;99.90;;;;;;5063448;28;20025;-78
2021/12/24 12:19:12;;;;;;;1.67;1.08;;;8.20;99.90;;;;;;5035448;28;20033;-78
2021/12/24 12:21:43;;;;;;;1.80;1.02;;;8.20;99.90;;;;;;5057505;28;20124;-79
2021/12/24 12:26:49;;;;;;;3.92;1.30;;;8.30;99.90;;;;;;5074081;28;20096;-77
2021/12/24 12:29:43;;;;;;;2.60;1.05;;;8.30;99.90;;;;;;5070629;28;20210;-79
2021/12/24 12:32:17;;;;;;;1.02;0.80;;;8.40;99.90;;;;;;5067650;28;20025;-79
2021/12/24 12:34:43;;;;;;;1.83;1.27;;;8.30;99.90;;;;;;5073045;28;20472;-78
2021/12/24 12:37:20;;;;;;;3.17;1.00;;;8.40;99.90;;;;;;5064887;28;20067;-78
2021/12/24 12:39:49;;;;;;;1.17;1.08;;;8.50;99.90;;;;;;5068063;28;20030;-80
2021/12/24 12:42:17;;;;;;;1.85;1.00;;;8.40;99.90;;;;;;5074832;28;20025;-81
2021/12/24 12:44:53;;;;;;;3.17;1.15;;;8.40;99.90;;;;;;5072696;28;20055;-81
2021/12/24 12:47:24;;;;;;;2.10;1.10;;;8.50;99.90;;;;;;5086579;28;20040;-81
2021/12/24 12:50:14;;;;;;;2.70;1.17;;;8.40;99.90;;;;;;5090788;28;20027;-80
2021/12/24 12:52:41;;;;;;;1.10;0.90;;;8.50;99.90;;;;;;5062876;28;20069;-80
2021/12/24 12:55:30;;;;;;;1.95;1.25;;;8.50;99.90;;;;;;5082911;28;20546;-80
2021/12/24 12:58:19;;;;;;;1.45;1.10;;;8.50;99.90;;;;;;5084826;28;20036;-82
2021/12/24 13:01:04;;;;;;;1.83;1.10;;;8.60;99.90;;;;;;5071325;28;20027;-80
2021/12/24 13:03:56;;;;;;;4.22;1.20;;;8.60;99.90;;;;;;5092308;28;20028;-81
2021/12/24 13:06:23;;;;;;;3.22;0.90;;;8.60;99.90;;;;;;5093005;28;20076;-81
2021/12/24 13:08:49;;;;;;;1.77;1.00;;;8.60;99.90;;;;;;5091581;28;20025;-82
2021/12/24 13:11:20;;;;;;;2.30;1.02;;;8.60;99.90;;;;;;5073638;28;20083;-82
2021/12/24 13:13:55;;;;;;;0.75;0.75;;;8.60;99.90;;;;;;5092237;28;20025;-81
2021/12/24 13:16:32;;;;;;;3.50;0.88;;;;;;;;;;5079897;28;20024;-81
2021/12/24 13:19:20;;;;;;;1.33;1.00;;;8.60;99.90;;;;;;5078526;28;20541;-81
2021/12/24 13:25:10;;;;;;;0.93;0.85;;;8.60;99.90;;;;;;5088028;28;20055;-81
2021/12/24 13:27:44;;;;;;;1.48;0.82;;;8.60;99.90;;;;;;5085147;28;20077;-82
2021/12/24 13:30:22;;;;;;;1.60;1.00;;;8.60;99.90;;;;;;5059704;28;20513;-82
2021/12/24 13:32:54;;;;;;;1.58;0.82;;;8.60;99.90;;;;;;5075214;28;20024;-81
2021/12/24 13:35:45;;;;;;;1.83;0.98;;;8.60;99.90;;;;;;5085268;28;20021;-82
2021/12/24 13:38:19;;;;;;;2.22;1.05;;;8.70;99.90;;;;;;5087792;28;20048;-81
2021/12/24 13:40:45;;;;;;;4.63;0.93;;;8.70;99.90;;;;;;5089774;28;20025;-81
2021/12/24 13:43:12;;;;;;;1.38;0.80;;;8.70;99.90;;;;;;5089133;28;20074;-81
2021/12/24 13:45:41;;;;;;;2.17;1.30;;;8.70;99.90;;;;;;5084522;28;20555;-82
2021/12/24 13:48:19;;;;;;;3.42;1.35;;;8.70;99.90;;;;;;5084929;28;20028;-82
2021/12/24 13:56:22;;;;;;;2.35;1.35;;;8.80;99.90;;;;;;5076142;28;20028;-81
2021/12/24 13:58:56;;;;;;;1.92;1.02;;;8.80;99.90;;;;;;5077323;28;20094;-82
2021/12/24 14:01:30;;;;;;;4.68;2.78;;;8.80;99.90;;;;;;5084359;28;20021;-81
2021/12/24 14:03:59;;;;;;;4.15;1.90;;;8.90;99.90;;;;;;5080586;28;20063;-82
2021/12/24 14:06:39;;;;;;;2.70;1.42;;;8.90;99.90;;;;;;5081309;28;20083;-81
2021/12/24 14:09:08;;;;;;;1.48;1.35;;;8.90;99.90;;;;;;5082020;28;20027;-81
2021/12/24 14:11:37;;;;;;;2.33;1.30;;;8.80;99.90;;;;;;5081651;28;20024;-81
2021/12/24 14:14:10;;;;;;;1.52;1.02;;;8.80;99.90;;;;;;5081733;28;20558;-80
2021/12/24 14:19:36;;;;;;;3.13;2.00;;;8.70;99.90;;;;;;5059642;28;20039;-80
2021/12/24 14:22:13;;;;;;;2.30;1.30;;;8.70;99.90;;;;;;5059751;28;20029;-79
2021/12/24 14:25:01;;;;;;;1.52;1.42;;;8.70;99.90;;;;;;5061154;28;20461;-80
2021/12/24 14:27:31;;;;;;;1.73;1.23;;;8.70;99.90;;;;;;5069557;28;20024;-80
2021/12/24 14:30:12;;;;;;;2.40;1.00;;;8.60;99.90;;;;;;5080251;28;20024;-80
2021/12/24 14:32:42;;;;;;;2.33;1.13;;;8.60;99.90;;;;;;5080691;28;20346;-82
2021/12/24 14:35:20;;;;;;;1.02;0.70;;;8.50;99.90;;;;;;5081560;28;20037;-81
2021/12/24 14:38:07;;;;;;;1.52;1.10;;;8.50;99.90;;;;;;5079349;28;20503;-82
2021/12/24 14:40:35;;;;;;;0.95;0.80;;;8.50;99.90;;;;;;5080121;28;20027;-80
2021/12/24 14:43:18;;;;;;;1.38;1.10;;;8.40;99.90;;;;;;5081537;28;20089;-83
2021/12/24 14:45:48;;;;;;;3.10;1.90;;;8.40;99.90;;;;;;5080476;28;20061;-80
2021/12/24 14:48:26;;;;;;;2.50;1.42;;;8.40;99.90;;;;;;5074967;28;20059;-81
2021/12/24 14:51:06;;;;;;;2.38;1.30;;;8.40;99.90;;;;;;5077519;28;20562;-80
2021/12/24 14:53:36;;;;;;;1.48;1.38;;;8.30;99.90;;;;;;5081026;28;20048;-80
2021/12/24 14:56:19;;;;;;;1.73;1.48;;;8.30;99.90;;;;;;5063023;28;20029;-79
2021/12/24 14:58:44;;;;;;;;;;;8.30;99.90;;;;;;5080999;28;20618;-80
2021/12/24 15:01:10;;;;;;;0.93;0.93;;;8.30;99.90;;;;;;5080743;28;19935;-80
2021/12/24 15:04:06;;;;;;;2.90;1.00;;;8.30;99.90;;;;;;5080515;28;20020;-80
2021/12/24 15:06:33;;;;;;;1.38;0.98;;;8.20;99.90;;;;;;5058960;28;20178;-80
2021/12/24 15:09:27;;;;;;;1.27;0.70;;;8.20;99.90;;;;;;5079995;28;20059;-80
2021/12/24 15:11:54;;;;;;;1.60;0.80;;;8.20;99.90;;;;;;5061797;28;20055;-80